sensor_id;sensor_type;location;lat;lon;timestamp;temperature;humidity
17266;DHT22;8749;47.076;15.412;2022-10-16T00:01:56;14.80;99.90
17266;DHT22;8749;47.076;15.412;2022-10-16T00:04:24;14.90;99.90
17266;DHT22;8749;47.076;15.412;2022-10-16T00:06:51;14.80;99.90
17266;DHT22;8749;47.076;15.412;2022-10-16T00:09:18;14.80;99.90
17266;DHT22;8749;47.076;15.412;2022-10-16T00:11:45;14.80;99.90
17266;DHT22;8749;47.076;15.412;2022-10-16T00:14:14;14.90;99.90
17266;DHT22;8749;47.076;15.412;2022-10-16T00:16:41;14.90;99.90
17266;DHT22;8749;47.076;15.412;2022-10-16T00:19:09;14.90;99.90
17266;DHT22;8749;47.076;15.412;2022-10-16T00:21:38;14.90;99.90
17266;DHT22;8749;47.076;15.412;2022-10-16T00:24:07;14.90;99.90
17266;DHT22;8749;47.076;15.412;2022-10-16T00:26:35;15.00;99.90
17266;DHT22;8749;47.076;15.412;2022-10-16T00:29:03;15.00;99.90
17266;DHT22;8749;47.076;15.412;2022-10-16T00:31:30;15.00;99.90
17266;DHT22;8749;47.076;15.412;2022-10-16T00:33:57;15.00;99.90
17266;DHT22;8749;47.076;15.412;2022-10-16T00:36:26;15.00;99.90
17266;DHT22;8749;47.076;15.412;2022-10-16T00:38:57;15.00;99.90
17266;DHT22;8749;47.076;15.412;2022-10-16T00:41:26;15.00;99.90
17266;DHT22;8749;47.076;15.412;2022-10-16T00:43:55;14.90;99.90
17266;DHT22;8749;47.076;15.412;2022-10-16T00:46:24;15.00;99.90
17266;DHT22;8749;47.076;15.412;2022-10-16T00:48:55;15.00;99.90
17266;DHT22;8749;47.076;15.412;2022-10-16T00:51:28;14.90;99.90
17266;DHT22;8749;47.076;15.412;2022-10-16T00:53:59;14.90;99.90
17266;DHT22;8749;47.076;15.412;2022-10-16T00:56:26;14.90;99.90
17266;DHT22;8749;47.076;15.412;2022-10-16T00:58:53;14.80;99.90
17266;DHT22;8749;47.076;15.412;2022-10-16T01:01:20;14.80;99.90
17266;DHT22;8749;47.076;15.412;2022-10-16T01:03:47;14.70;99.90
17266;DHT22;8749;47.076;15.412;2022-10-16T01:06:23;14.70;99.90
17266;DHT22;8749;47.076;15.412;2022-10-16T01:09:09;14.70;99.90
17266;DHT22;8749;47.076;15.412;2022-10-16T01:11:44;14.70;99.90
17266;DHT22;8749;47.076;15.412;2022-10-16T01:14:17;14.70;99.90
17266;DHT22;8749;47.076;15.412;2022-10-16T01:16:51;14.70;99.90
17266;DHT22;8749;47.076;15.412;2022-10-16T01:19:31;14.70;99.90
17266;DHT22;8749;47.076;15.412;2022-10-16T01:22:02;14.70;99.90
17266;DHT22;8749;47.076;15.412;2022-10-16T01:24:38;14.60;99.90
17266;DHT22;8749;47.076;15.412;2022-10-16T01:27:09;14.70;99.90
17266;DHT22;8749;47.076;15.412;2022-10-16T01:29:41;14.70;99.90
17266;DHT22;8749;47.076;15.412;2022-10-16T01:32:15;14.70;99.90
17266;DHT22;8749;47.076;15.412;2022-10-16T01:34:48;14.70;99.90
17266;DHT22;8749;47.076;15.412;2022-10-16T01:37:20;14.70;99.90
17266;DHT22;8749;47.076;15.412;2022-10-16T01:39:50;14.70;99.90
17266;DHT22;8749;47.076;15.412;2022-10-16T01:42:23;14.60;99.90
17266;DHT22;8749;47.076;15.412;2022-10-16T01:44:52;14.60;99.90
17266;DHT22;8749;47.076;15.412;2022-10-16T01:47:23;14.50;99.90
17266;DHT22;8749;47.076;15.412;2022-10-16T01:49:52;14.50;99.90
17266;DHT22;8749;47.076;15.412;2022-10-16T01:52:23;14.50;99.90
17266;DHT22;8749;47.076;15.412;2022-10-16T01:54:54;14.50;99.90
17266;DHT22;8749;47.076;15.412;2022-10-16T01:57:24;14.40;99.90
17266;DHT22;8749;47.076;15.412;2022-10-16T01:59:54;14.40;99.90
17266;DHT22;8749;47.076;15.412;2022-10-16T02:02:24;14.40;99.90
17266;DHT22;8749;47.076;15.412;2022-10-16T02:04:57;14.50;99.90
17266;DHT22;8749;47.076;15.412;2022-10-16T02:07:24;14.50;99.90
17266;DHT22;8749;47.076;15.412;2022-10-16T02:09:51;14.40;99.90
17266;DHT22;8749;47.076;15.412;2022-10-16T02:12:25;14.40;99.90
17266;DHT22;8749;47.076;15.412;2022-10-16T02:14:53;14.40;99.90
17266;DHT22;8749;47.076;15.412;2022-10-16T02:17:21;14.40;99.90
17266;DHT22;8749;47.076;15.412;2022-10-16T02:19:49;14.40;99.90
17266;DHT22;8749;47.076;15.412;2022-10-16T02:22:22;14.40;99.90
17266;DHT22;8749;47.076;15.412;2022-10-16T02:24:54;14.50;99.90
17266;DHT22;8749;47.076;15.412;2022-10-16T02:27:27;14.40;99.90
17266;DHT22;8749;47.076;15.412;2022-10-16T02:29:59;14.40;99.90
17266;DHT22;8749;47.076;15.412;2022-10-16T02:32:34;14.40;99.90
17266;DHT22;8749;47.076;15.412;2022-10-16T02:35:02;14.30;99.90
17266;DHT22;8749;47.076;15.412;2022-10-16T02:37:30;14.30;99.90
17266;DHT22;8749;47.076;15.412;2022-10-16T02:39:58;14.30;99.90
17266;DHT22;8749;47.076;15.412;2022-10-16T02:42:33;14.20;99.90
17266;DHT22;8749;47.076;15.412;2022-10-16T02:45:01;14.20;99.90
17266;DHT22;8749;47.076;15.412;2022-10-16T02:47:29;14.20;99.90
17266;DHT22;8749;47.076;15.412;2022-10-16T02:49:56;14.20;99.90
17266;DHT22;8749;47.076;15.412;2022-10-16T02:52:23;14.20;99.90
17266;DHT22;8749;47.076;15.412;2022-10-16T02:54:50;14.20;99.90
17266;DHT22;8749;47.076;15.412;2022-10-16T02:57:17;14.20;99.90
17266;DHT22;8749;47.076;15.412;2022-10-16T02:59:45;14.20;99.90
17266;DHT22;8749;47.076;15.412;2022-10-16T03:02:12;14.10;99.90
17266;DHT22;8749;47.076;15.412;2022-10-16T03:04:39;14.10;99.90
17266;DHT22;8749;47.076;15.412;2022-10-16T03:07:06;14.10;99.90
17266;DHT22;8749;47.076;15.412;2022-10-16T03:09:34;14.10;99.90
17266;DHT22;8749;47.076;15.412;2022-10-16T03:12:01;14.00;99.90
17266;DHT22;8749;47.076;15.412;2022-10-16T03:14:28;14.00;99.90
17266;DHT22;8749;47.076;15.412;2022-10-16T03:16:56;14.00;99.90
17266;DHT22;8749;47.076;15.412;2022-10-16T03:19:23;14.10;99.90
17266;DHT22;8749;47.076;15.412;2022-10-16T03:21:50;14.10;99.90
17266;DHT22;8749;47.076;15.412;2022-10-16T03:24:17;14.10;99.90
17266;DHT22;8749;47.076;15.412;2022-10-16T03:26:44;14.10;99.90
17266;DHT22;8749;47.076;15.412;2022-10-16T03:29:11;14.10;99.90
17266;DHT22;8749;47.076;15.412;2022-10-16T03:31:38;14.10;99.90
17266;DHT22;8749;47.076;15.412;2022-10-16T03:34:07;14.10;99.90
17266;DHT22;8749;47.076;15.412;2022-10-16T03:36:34;14.10;99.90
17266;DHT22;8749;47.076;15.412;2022-10-16T03:39:01;14.20;99.90
17266;DHT22;8749;47.076;15.412;2022-10-16T03:41:28;14.20;99.90
17266;DHT22;8749;47.076;15.412;2022-10-16T03:43:55;14.20;99.90
17266;DHT22;8749;47.076;15.412;2022-10-16T03:46:22;14.10;99.90
17266;DHT22;8749;47.076;15.412;2022-10-16T03:48:49;14.10;99.90
17266;DHT22;8749;47.076;15.412;2022-10-16T03:51:17;14.10;99.90
17266;DHT22;8749;47.076;15.412;2022-10-16T03:53:44;14.10;99.90
17266;DHT22;8749;47.076;15.412;2022-10-16T03:56:11;14.10;99.90
17266;DHT22;8749;47.076;15.412;2022-10-16T03:58:38;14.10;99.90
17266;DHT22;8749;47.076;15.412;2022-10-16T04:01:05;14.20;99.90
17266;DHT22;8749;47.076;15.412;2022-10-16T04:03:32;14.10;99.90
17266;DHT22;8749;47.076;15.412;2022-10-16T04:05:59;14.20;99.90
17266;DHT22;8749;47.076;15.412;2022-10-16T04:08:27;14.20;99.90
17266;DHT22;8749;47.076;15.412;2022-10-16T04:10:54;14.20;99.90
17266;DHT22;8749;47.076;15.412;2022-10-16T04:13:21;14.20;99.90
17266;DHT22;8749;47.076;15.412;2022-10-16T04:15:48;14.20;99.90
17266;DHT22;8749;47.076;15.412;2022-10-16T04:18:15;14.20;99.90
17266;DHT22;8749;47.076;15.412;2022-10-16T04:20:42;14.20;99.90
17266;DHT22;8749;47.076;15.412;2022-10-16T04:23:09;14.20;99.90
17266;DHT22;8749;47.076;15.412;2022-10-16T04:25:37;14.20;99.90
17266;DHT22;8749;47.076;15.412;2022-10-16T04:28:04;14.10;99.90
17266;DHT22;8749;47.076;15.412;2022-10-16T04:30:31;14.10;99.90
17266;DHT22;8749;47.076;15.412;2022-10-16T04:32:59;14.20;99.90
17266;DHT22;8749;47.076;15.412;2022-10-16T04:35:26;14.20;99.90
17266;DHT22;8749;47.076;15.412;2022-10-16T04:37:53;14.10;99.90
17266;DHT22;8749;47.076;15.412;2022-10-16T04:40:20;14.10;99.90
17266;DHT22;8749;47.076;15.412;2022-10-16T04:42:48;14.20;99.90
17266;DHT22;8749;47.076;15.412;2022-10-16T04:45:15;14.10;99.90
17266;DHT22;8749;47.076;15.412;2022-10-16T04:47:42;14.10;99.90
17266;DHT22;8749;47.076;15.412;2022-10-16T04:50:09;14.10;99.90
17266;DHT22;8749;47.076;15.412;2022-10-16T04:52:36;14.10;99.90
17266;DHT22;8749;47.076;15.412;2022-10-16T04:55:04;14.10;99.90
17266;DHT22;8749;47.076;15.412;2022-10-16T04:57:31;14.10;99.90
17266;DHT22;8749;47.076;15.412;2022-10-16T05:00:00;14.10;99.90
17266;DHT22;8749;47.076;15.412;2022-10-16T05:02:28;14.10;99.90
17266;DHT22;8749;47.076;15.412;2022-10-16T05:04:55;14.10;99.90
17266;DHT22;8749;47.076;15.412;2022-10-16T05:07:22;14.10;99.90
17266;DHT22;8749;47.076;15.412;2022-10-16T05:09:49;14.00;99.90
17266;DHT22;8749;47.076;15.412;2022-10-16T05:12:16;14.00;99.90
17266;DHT22;8749;47.076;15.412;2022-10-16T05:14:43;14.00;99.90
17266;DHT22;8749;47.076;15.412;2022-10-16T05:17:11;14.00;99.90
17266;DHT22;8749;47.076;15.412;2022-10-16T05:19:38;14.10;99.90
17266;DHT22;8749;47.076;15.412;2022-10-16T05:22:05;14.00;99.90
17266;DHT22;8749;47.076;15.412;2022-10-16T05:24:32;14.10;99.90
17266;DHT22;8749;47.076;15.412;2022-10-16T05:26:59;14.00;99.90
17266;DHT22;8749;47.076;15.412;2022-10-16T05:29:26;14.00;99.90
17266;DHT22;8749;47.076;15.412;2022-10-16T05:31:53;14.00;99.90
17266;DHT22;8749;47.076;15.412;2022-10-16T05:34:21;14.10;99.90
17266;DHT22;8749;47.076;15.412;2022-10-16T05:36:48;14.10;99.90
17266;DHT22;8749;47.076;15.412;2022-10-16T05:39:16;14.20;99.90
17266;DHT22;8749;47.076;15.412;2022-10-16T05:41:43;14.20;99.90
17266;DHT22;8749;47.076;15.412;2022-10-16T05:44:10;14.30;99.90
17266;DHT22;8749;47.076;15.412;2022-10-16T05:46:37;14.30;99.90
17266;DHT22;8749;47.076;15.412;2022-10-16T05:49:04;14.20;99.90
17266;DHT22;8749;47.076;15.412;2022-10-16T05:51:33;14.20;99.90
17266;DHT22;8749;47.076;15.412;2022-10-16T05:54:00;14.20;99.90
17266;DHT22;8749;47.076;15.412;2022-10-16T05:56:27;14.20;99.90
17266;DHT22;8749;47.076;15.412;2022-10-16T05:58:54;14.10;99.90
17266;DHT22;8749;47.076;15.412;2022-10-16T06:01:21;14.10;99.90
17266;DHT22;8749;47.076;15.412;2022-10-16T06:03:49;14.10;99.90
17266;DHT22;8749;47.076;15.412;2022-10-16T06:06:18;14.10;99.90
17266;DHT22;8749;47.076;15.412;2022-10-16T06:08:48;14.20;99.90
17266;DHT22;8749;47.076;15.412;2022-10-16T06:11:19;14.20;99.90
17266;DHT22;8749;47.076;15.412;2022-10-16T06:13:49;14.20;99.90
17266;DHT22;8749;47.076;15.412;2022-10-16T06:16:16;14.20;99.90
17266;DHT22;8749;47.076;15.412;2022-10-16T06:18:43;14.30;99.90
17266;DHT22;8749;47.076;15.412;2022-10-16T06:21:12;14.30;99.90
17266;DHT22;8749;47.076;15.412;2022-10-16T06:23:40;14.30;99.90
17266;DHT22;8749;47.076;15.412;2022-10-16T06:26:10;14.40;99.90
17266;DHT22;8749;47.076;15.412;2022-10-16T06:28:38;14.50;99.90
17266;DHT22;8749;47.076;15.412;2022-10-16T06:31:06;14.60;99.90
17266;DHT22;8749;47.076;15.412;2022-10-16T06:33:34;14.60;99.90
17266;DHT22;8749;47.076;15.412;2022-10-16T06:36:01;14.60;99.90
17266;DHT22;8749;47.076;15.412;2022-10-16T06:38:29;14.70;99.90
17266;DHT22;8749;47.076;15.412;2022-10-16T06:40:56;14.60;99.90
17266;DHT22;8749;47.076;15.412;2022-10-16T06:43:25;14.70;99.90
17266;DHT22;8749;47.076;15.412;2022-10-16T06:45:52;14.70;99.90
17266;DHT22;8749;47.076;15.412;2022-10-16T06:48:20;14.80;99.90
17266;DHT22;8749;47.076;15.412;2022-10-16T06:50:56;14.80;99.90
17266;DHT22;8749;47.076;15.412;2022-10-16T06:53:23;14.90;99.90
17266;DHT22;8749;47.076;15.412;2022-10-16T06:55:51;15.00;99.90
17266;DHT22;8749;47.076;15.412;2022-10-16T06:58:18;15.10;99.90
17266;DHT22;8749;47.076;15.412;2022-10-16T07:00:46;15.10;99.90
17266;DHT22;8749;47.076;15.412;2022-10-16T07:03:13;15.20;99.90
17266;DHT22;8749;47.076;15.412;2022-10-16T07:05:40;15.20;99.90
17266;DHT22;8749;47.076;15.412;2022-10-16T07:08:08;15.30;99.90
17266;DHT22;8749;47.076;15.412;2022-10-16T07:10:35;15.30;99.90
17266;DHT22;8749;47.076;15.412;2022-10-16T07:13:02;15.30;99.90
17266;DHT22;8749;47.076;15.412;2022-10-16T07:15:29;15.30;99.90
17266;DHT22;8749;47.076;15.412;2022-10-16T07:17:57;15.30;99.90
17266;DHT22;8749;47.076;15.412;2022-10-16T07:20:25;15.20;99.90
17266;DHT22;8749;47.076;15.412;2022-10-16T07:22:52;15.20;99.90
17266;DHT22;8749;47.076;15.412;2022-10-16T07:25:19;15.20;99.90
17266;DHT22;8749;47.076;15.412;2022-10-16T07:27:46;15.10;99.90
17266;DHT22;8749;47.076;15.412;2022-10-16T07:30:13;15.00;99.90
17266;DHT22;8749;47.076;15.412;2022-10-16T07:32:40;15.00;99.90
17266;DHT22;8749;47.076;15.412;2022-10-16T07:35:08;15.00;99.90
17266;DHT22;8749;47.076;15.412;2022-10-16T07:37:36;15.10;99.90
17266;DHT22;8749;47.076;15.412;2022-10-16T07:40:03;15.10;99.90
17266;DHT22;8749;47.076;15.412;2022-10-16T07:42:30;15.20;99.90
17266;DHT22;8749;47.076;15.412;2022-10-16T07:44:57;15.30;99.90
17266;DHT22;8749;47.076;15.412;2022-10-16T07:47:24;15.50;99.90
17266;DHT22;8749;47.076;15.412;2022-10-16T07:49:51;15.20;99.90
17266;DHT22;8749;47.076;15.412;2022-10-16T07:52:19;15.10;99.90
17266;DHT22;8749;47.076;15.412;2022-10-16T07:54:46;15.20;99.90
17266;DHT22;8749;47.076;15.412;2022-10-16T07:57:13;15.10;99.90
17266;DHT22;8749;47.076;15.412;2022-10-16T07:59:44;15.00;99.90
17266;DHT22;8749;47.076;15.412;2022-10-16T08:02:11;15.20;99.90
17266;DHT22;8749;47.076;15.412;2022-10-16T08:04:38;15.00;99.90
17266;DHT22;8749;47.076;15.412;2022-10-16T08:07:07;15.00;99.90
17266;DHT22;8749;47.076;15.412;2022-10-16T08:09:35;15.00;99.90
17266;DHT22;8749;47.076;15.412;2022-10-16T08:12:02;15.10;99.90
17266;DHT22;8749;47.076;15.412;2022-10-16T08:14:30;15.10;99.90
17266;DHT22;8749;47.076;15.412;2022-10-16T08:16:57;15.30;99.90
17266;DHT22;8749;47.076;15.412;2022-10-16T08:19:24;15.40;99.90
17266;DHT22;8749;47.076;15.412;2022-10-16T08:21:51;15.60;99.90
17266;DHT22;8749;47.076;15.412;2022-10-16T08:24:18;15.80;99.90
17266;DHT22;8749;47.076;15.412;2022-10-16T08:26:46;15.90;99.90
17266;DHT22;8749;47.076;15.412;2022-10-16T08:29:14;16.00;99.90
17266;DHT22;8749;47.076;15.412;2022-10-16T08:31:41;16.10;99.90
17266;DHT22;8749;47.076;15.412;2022-10-16T08:34:08;16.20;99.90
17266;DHT22;8749;47.076;15.412;2022-10-16T08:36:34;16.20;99.90
17266;DHT22;8749;47.076;15.412;2022-10-16T08:39:01;16.10;99.90
17266;DHT22;8749;47.076;15.412;2022-10-16T08:42:03;16.20;99.90
17266;DHT22;8749;47.076;15.412;2022-10-16T08:47:26;16.20;99.90
17266;DHT22;8749;47.076;15.412;2022-10-16T08:50:10;16.20;99.90
17266;DHT22;8749;47.076;15.412;2022-10-16T08:52:40;16.30;99.90
17266;DHT22;8749;47.076;15.412;2022-10-16T08:55:19;16.40;99.90
17266;DHT22;8749;47.076;15.412;2022-10-16T08:57:49;16.40;99.90
17266;DHT22;8749;47.076;15.412;2022-10-16T09:00:17;16.40;99.90
17266;DHT22;8749;47.076;15.412;2022-10-16T09:02:48;16.60;99.90
17266;DHT22;8749;47.076;15.412;2022-10-16T09:05:30;16.60;99.90
17266;DHT22;8749;47.076;15.412;2022-10-16T09:08:08;16.70;99.90
17266;DHT22;8749;47.076;15.412;2022-10-16T09:10:42;16.80;99.90
17266;DHT22;8749;47.076;15.412;2022-10-16T09:13:19;16.90;99.90
17266;DHT22;8749;47.076;15.412;2022-10-16T09:15:53;16.90;99.90
17266;DHT22;8749;47.076;15.412;2022-10-16T09:18:24;17.00;99.90
17266;DHT22;8749;47.076;15.412;2022-10-16T09:20:57;17.00;99.90
17266;DHT22;8749;47.076;15.412;2022-10-16T09:23:27;17.20;99.90
17266;DHT22;8749;47.076;15.412;2022-10-16T09:25:55;17.30;99.90
17266;DHT22;8749;47.076;15.412;2022-10-16T09:28:26;17.30;99.90
17266;DHT22;8749;47.076;15.412;2022-10-16T09:30:53;17.30;99.90
17266;DHT22;8749;47.076;15.412;2022-10-16T09:33:23;17.40;99.90
17266;DHT22;8749;47.076;15.412;2022-10-16T09:35:53;17.50;99.90
17266;DHT22;8749;47.076;15.412;2022-10-16T09:38:23;17.50;99.90
17266;DHT22;8749;47.076;15.412;2022-10-16T09:40:51;17.60;99.90
17266;DHT22;8749;47.076;15.412;2022-10-16T09:43:23;17.70;99.90
17266;DHT22;8749;47.076;15.412;2022-10-16T09:45:59;17.80;99.90
17266;DHT22;8749;47.076;15.412;2022-10-16T09:48:30;17.90;99.90
17266;DHT22;8749;47.076;15.412;2022-10-16T09:50:59;18.00;99.90
17266;DHT22;8749;47.076;15.412;2022-10-16T09:53:38;18.10;99.90
17266;DHT22;8749;47.076;15.412;2022-10-16T09:56:06;18.10;99.90
17266;DHT22;8749;47.076;15.412;2022-10-16T09:58:33;18.20;99.90
17266;DHT22;8749;47.076;15.412;2022-10-16T10:01:01;18.30;99.90
17266;DHT22;8749;47.076;15.412;2022-10-16T10:03:36;18.40;99.90
17266;DHT22;8749;47.076;15.412;2022-10-16T10:06:14;18.40;99.90
17266;DHT22;8749;47.076;15.412;2022-10-16T10:08:56;18.40;99.90
17266;DHT22;8749;47.076;15.412;2022-10-16T10:11:49;18.60;99.90
17266;DHT22;8749;47.076;15.412;2022-10-16T10:14:32;18.70;99.90
17266;DHT22;8749;47.076;15.412;2022-10-16T10:17:13;18.80;99.90
17266;DHT22;8749;47.076;15.412;2022-10-16T10:19:42;18.90;99.90
17266;DHT22;8749;47.076;15.412;2022-10-16T10:22:30;19.00;99.90
17266;DHT22;8749;47.076;15.412;2022-10-16T10:25:00;19.20;99.90
17266;DHT22;8749;47.076;15.412;2022-10-16T10:27:41;19.30;99.90
17266;DHT22;8749;47.076;15.412;2022-10-16T10:30:17;19.40;99.90
17266;DHT22;8749;47.076;15.412;2022-10-16T10:32:57;19.50;99.90
17266;DHT22;8749;47.076;15.412;2022-10-16T10:35:36;19.60;99.90
17266;DHT22;8749;47.076;15.412;2022-10-16T10:38:20;19.80;99.90
17266;DHT22;8749;47.076;15.412;2022-10-16T10:40:56;19.90;99.90
17266;DHT22;8749;47.076;15.412;2022-10-16T10:43:41;20.00;99.90
17266;DHT22;8749;47.076;15.412;2022-10-16T10:46:19;20.10;99.90
17266;DHT22;8749;47.076;15.412;2022-10-16T10:51:52;20.40;99.90
17266;DHT22;8749;47.076;15.412;2022-10-16T10:54:28;20.50;99.90
17266;DHT22;8749;47.076;15.412;2022-10-16T10:57:02;20.70;99.90
17266;DHT22;8749;47.076;15.412;2022-10-16T11:02:34;21.00;99.90
17266;DHT22;8749;47.076;15.412;2022-10-16T11:05:29;21.20;99.90
17266;DHT22;8749;47.076;15.412;2022-10-16T11:07:59;21.40;99.90
17266;DHT22;8749;47.076;15.412;2022-10-16T11:10:30;21.60;99.90
17266;DHT22;8749;47.076;15.412;2022-10-16T11:13:19;21.70;99.90
17266;DHT22;8749;47.076;15.412;2022-10-16T11:15:48;21.90;99.90
17266;DHT22;8749;47.076;15.412;2022-10-16T11:18:18;22.00;99.90
17266;DHT22;8749;47.076;15.412;2022-10-16T11:20:52;22.20;99.90
17266;DHT22;8749;47.076;15.412;2022-10-16T11:23:25;22.40;99.90
17266;DHT22;8749;47.076;15.412;2022-10-16T11:25:53;22.60;99.90
17266;DHT22;8749;47.076;15.412;2022-10-16T11:28:26;22.80;99.90
17266;DHT22;8749;47.076;15.412;2022-10-16T11:30:58;23.00;99.90
17266;DHT22;8749;47.076;15.412;2022-10-16T11:33:30;23.20;99.90
17266;DHT22;8749;47.076;15.412;2022-10-16T11:36:06;23.40;99.90
17266;DHT22;8749;47.076;15.412;2022-10-16T11:38:38;23.50;99.90
17266;DHT22;8749;47.076;15.412;2022-10-16T11:41:15;23.70;99.90
17266;DHT22;8749;47.076;15.412;2022-10-16T11:43:50;23.90;99.90
17266;DHT22;8749;47.076;15.412;2022-10-16T11:46:21;24.10;99.90
17266;DHT22;8749;47.076;15.412;2022-10-16T11:48:54;24.30;99.90
17266;DHT22;8749;47.076;15.412;2022-10-16T11:51:29;24.50;99.90
17266;DHT22;8749;47.076;15.412;2022-10-16T11:54:07;24.80;99.90
17266;DHT22;8749;47.076;15.412;2022-10-16T11:56:38;25.10;99.90
17266;DHT22;8749;47.076;15.412;2022-10-16T11:59:11;25.40;99.90
17266;DHT22;8749;47.076;15.412;2022-10-16T12:01:46;25.80;99.90
17266;DHT22;8749;47.076;15.412;2022-10-16T12:04:22;26.20;99.90
17266;DHT22;8749;47.076;15.412;2022-10-16T12:06:59;26.40;99.90
17266;DHT22;8749;47.076;15.412;2022-10-16T12:09:32;26.50;99.90
17266;DHT22;8749;47.076;15.412;2022-10-16T12:11:59;26.70;99.90
17266;DHT22;8749;47.076;15.412;2022-10-16T12:14:39;26.90;99.90
17266;DHT22;8749;47.076;15.412;2022-10-16T12:17:22;27.10;99.90
17266;DHT22;8749;47.076;15.412;2022-10-16T12:19:58;27.30;99.90
17266;DHT22;8749;47.076;15.412;2022-10-16T12:22:28;27.50;99.90
17266;DHT22;8749;47.076;15.412;2022-10-16T12:24:56;27.80;99.90
17266;DHT22;8749;47.076;15.412;2022-10-16T12:27:27;28.10;99.90
17266;DHT22;8749;47.076;15.412;2022-10-16T12:29:56;28.50;99.20
17266;DHT22;8749;47.076;15.412;2022-10-16T12:32:28;28.80;96.90
17266;DHT22;8749;47.076;15.412;2022-10-16T12:34:56;28.90;94.70
